createdAt,value
2022-12-22T00:00:28.232Z,10.59
2022-12-22T00:01:28.266Z,10.63
2022-12-22T00:02:28.442Z,10.63
2022-12-22T00:03:28.311Z,10.61
2022-12-22T00:04:28.193Z,10.67
2022-12-22T00:05:28.181Z,10.60
2022-12-22T00:06:28.168Z,10.61
2022-12-22T00:07:28.155Z,10.64
2022-12-22T00:08:28.162Z,10.64
2022-12-22T00:09:28.139Z,10.67
2022-12-22T00:10:28.119Z,10.57
2022-12-22T00:11:28.119Z,10.60
2022-12-22T00:12:28.107Z,10.53
2022-12-22T00:13:28.097Z,10.59
2022-12-22T00:14:28.089Z,10.49
2022-12-22T00:15:28.076Z,10.49
2022-12-22T00:16:28.125Z,10.57
2022-12-22T00:17:28.070Z,10.51
2022-12-22T00:18:28.047Z,10.54
2022-12-22T00:19:28.036Z,10.48
2022-12-22T00:20:28.026Z,10.49
2022-12-22T00:21:28.003Z,10.51
2022-12-22T00:22:28.004Z,10.44
2022-12-22T00:23:27.996Z,10.51
2022-12-22T00:24:27.984Z,10.56
2022-12-22T00:25:27.978Z,10.48
2022-12-22T00:26:28.013Z,10.51
2022-12-22T00:27:27.960Z,10.35
2022-12-22T00:28:27.949Z,10.48
2022-12-22T00:29:27.940Z,10.41
2022-12-22T00:30:27.959Z,10.42
2022-12-22T00:31:27.991Z,10.48
2022-12-22T00:32:27.909Z,10.48
2022-12-22T00:33:27.891Z,10.51
2022-12-22T00:34:32.449Z,10.53
2022-12-22T00:35:27.868Z,10.44
2022-12-22T00:36:27.851Z,10.56
2022-12-22T00:37:27.847Z,10.51
2022-12-22T00:38:27.835Z,10.49
2022-12-22T00:39:27.826Z,10.37
2022-12-22T00:40:27.819Z,10.53
2022-12-22T00:41:27.823Z,10.53
2022-12-22T00:42:27.811Z,10.51
2022-12-22T00:43:27.786Z,10.56
2022-12-22T00:44:27.778Z,10.41
2022-12-22T00:45:27.883Z,10.49
2022-12-22T00:46:27.842Z,10.51
2022-12-22T00:47:27.742Z,10.41
2022-12-22T00:48:27.722Z,10.42
2022-12-22T00:49:27.728Z,10.34
2022-12-22T00:50:27.710Z,10.40
2022-12-22T00:51:27.714Z,10.40
2022-12-22T00:52:27.700Z,10.46
2022-12-22T00:53:27.680Z,10.37
2022-12-22T00:54:27.680Z,10.38
2022-12-22T00:55:27.656Z,10.35
2022-12-22T00:56:27.652Z,10.38
2022-12-22T00:57:27.639Z,10.40
2022-12-22T00:58:27.634Z,10.38
2022-12-22T00:59:27.620Z,10.44
2022-12-22T01:00:27.607Z,10.35
2022-12-22T01:01:27.688Z,10.26
2022-12-22T01:02:27.819Z,10.26
2022-12-22T01:03:27.627Z,10.30
2022-12-22T01:04:27.570Z,10.26
2022-12-22T01:05:27.560Z,10.34
2022-12-22T01:06:27.544Z,10.23
2022-12-22T01:07:27.534Z,10.23
2022-12-22T01:08:27.527Z,10.26
2022-12-22T01:09:27.515Z,10.31
2022-12-22T01:10:27.509Z,10.33
2022-12-22T01:11:27.497Z,10.38
2022-12-22T01:12:27.484Z,10.41
2022-12-22T01:13:27.474Z,10.42
2022-12-22T01:14:27.469Z,10.30
2022-12-22T01:15:27.454Z,10.33
2022-12-22T01:16:27.495Z,10.30
2022-12-22T01:17:27.436Z,10.42
2022-12-22T01:18:27.424Z,10.38
2022-12-22T01:19:27.409Z,10.40
2022-12-22T01:20:27.401Z,10.37
2022-12-22T01:21:27.386Z,10.42
2022-12-22T01:22:27.385Z,10.38
2022-12-22T01:23:27.376Z,10.35
2022-12-22T01:24:27.361Z,10.42
2022-12-22T01:25:27.351Z,10.33
2022-12-22T01:26:27.337Z,10.40
2022-12-22T01:27:27.337Z,10.35
2022-12-22T01:28:27.317Z,10.35
2022-12-22T01:29:27.311Z,10.33
2022-12-22T01:30:27.338Z,10.30
2022-12-22T01:31:27.421Z,10.41
2022-12-22T01:32:27.283Z,10.37
2022-12-22T01:33:27.269Z,10.34
2022-12-22T01:34:27.251Z,10.34
2022-12-22T01:35:27.246Z,10.33
2022-12-22T01:36:27.237Z,10.34
2022-12-22T01:37:27.225Z,10.35
2022-12-22T01:38:27.213Z,10.40
2022-12-22T01:39:27.202Z,10.40
2022-12-22T01:40:27.202Z,10.33
2022-12-22T01:41:27.180Z,10.33
2022-12-22T01:42:27.170Z,10.37
2022-12-22T01:43:27.161Z,10.31
2022-12-22T01:44:27.154Z,10.37
2022-12-22T01:45:27.143Z,10.41
2022-12-22T01:46:27.296Z,10.30
2022-12-22T01:47:27.121Z,10.31
2022-12-22T01:48:27.108Z,10.42
2022-12-22T01:49:27.111Z,10.37
2022-12-22T01:50:27.086Z,10.35
2022-12-22T01:51:27.076Z,10.35
2022-12-22T01:52:27.079Z,10.33
2022-12-22T01:53:27.057Z,10.41
2022-12-22T01:54:27.068Z,10.31
2022-12-22T01:55:27.046Z,10.37
2022-12-22T01:56:27.020Z,10.41
2022-12-22T01:57:27.013Z,10.37
2022-12-22T01:58:27.004Z,10.37
2022-12-22T01:59:27.048Z,10.35
2022-12-22T02:00:26.990Z,10.33
2022-12-22T02:01:27.056Z,10.38
2022-12-22T02:02:27.103Z,10.34
2022-12-22T02:03:27.001Z,10.37
2022-12-22T02:04:26.944Z,10.33
2022-12-22T02:05:26.936Z,10.44
2022-12-22T02:06:26.927Z,10.40
2022-12-22T02:07:26.916Z,10.46
2022-12-22T02:08:26.898Z,10.46
2022-12-22T02:09:26.893Z,10.40
2022-12-22T02:10:26.954Z,10.46
2022-12-22T02:11:26.868Z,10.44
2022-12-22T02:12:26.860Z,10.40
2022-12-22T02:13:26.869Z,10.41
2022-12-22T02:14:30.156Z,10.40
2022-12-22T02:15:26.839Z,10.40
2022-12-22T02:16:26.874Z,10.44
2022-12-22T02:17:26.805Z,10.42
2022-12-22T02:18:26.795Z,10.48
2022-12-22T02:19:26.788Z,10.48
2022-12-22T02:20:26.782Z,10.41
2022-12-22T02:21:26.770Z,10.44
2022-12-22T02:22:26.755Z,10.38
2022-12-22T02:23:26.749Z,10.42
2022-12-22T02:24:26.754Z,10.41
2022-12-22T02:25:26.727Z,10.44
2022-12-22T02:26:26.713Z,10.42
2022-12-22T02:27:26.703Z,10.56
2022-12-22T02:28:26.692Z,10.38
2022-12-22T02:29:26.691Z,10.49
2022-12-22T02:30:26.677Z,10.51
2022-12-22T02:31:26.749Z,10.53
2022-12-22T02:32:26.653Z,10.51
2022-12-22T02:33:26.647Z,10.49
2022-12-22T02:34:26.632Z,10.54
2022-12-22T02:35:26.621Z,10.57
2022-12-22T02:36:26.610Z,10.56
2022-12-22T02:37:26.602Z,10.59
2022-12-22T02:38:26.591Z,10.57
2022-12-22T02:39:26.580Z,10.56
2022-12-22T02:40:26.570Z,10.57
2022-12-22T02:41:26.560Z,10.57
2022-12-22T02:42:26.548Z,10.56
2022-12-22T02:43:26.542Z,10.51
2022-12-22T02:44:26.536Z,10.54
2022-12-22T02:45:26.513Z,10.46
2022-12-22T02:46:26.551Z,10.46
2022-12-22T02:47:26.496Z,10.51
2022-12-22T02:48:26.484Z,10.49
2022-12-22T02:49:26.473Z,10.38
2022-12-22T02:50:26.465Z,10.41
2022-12-22T02:51:26.454Z,10.48
2022-12-22T02:52:26.442Z,10.53
2022-12-22T02:53:26.437Z,10.49
2022-12-22T02:54:26.438Z,10.54
2022-12-22T02:55:26.420Z,10.51
2022-12-22T02:56:26.422Z,10.56
2022-12-22T02:57:26.392Z,10.53
2022-12-22T02:58:26.386Z,10.46
2022-12-22T02:59:26.378Z,10.60
2022-12-22T03:00:26.382Z,10.46
2022-12-22T03:01:26.409Z,10.48
2022-12-22T03:02:26.535Z,10.40
2022-12-22T03:03:26.482Z,10.42
2022-12-22T03:04:26.320Z,10.53
2022-12-22T03:05:26.312Z,10.49
2022-12-22T03:06:26.305Z,10.42
2022-12-22T03:07:26.301Z,10.56
2022-12-22T03:08:26.280Z,10.49
2022-12-22T03:09:26.272Z,10.57
2022-12-22T03:10:26.259Z,10.54
2022-12-22T03:11:26.246Z,10.57
2022-12-22T03:12:26.241Z,10.49
2022-12-22T03:13:26.227Z,10.48
2022-12-22T03:15:57.874Z,10.49
2022-12-22T03:16:57.814Z,10.53
2022-12-22T03:19:01.744Z,10.54
2022-12-22T03:20:01.733Z,10.53
2022-12-22T03:22:05.692Z,10.56
2022-12-22T03:23:05.671Z,10.54
2022-12-22T03:25:09.612Z,10.53
2022-12-22T03:26:09.602Z,10.44
2022-12-22T03:28:13.560Z,10.44
2022-12-22T03:29:13.574Z,10.53
2022-12-22T03:31:17.511Z,10.57
2022-12-22T03:32:17.450Z,10.53
2022-12-22T03:34:21.398Z,10.51
2022-12-22T03:35:21.391Z,10.54
2022-12-22T03:37:25.326Z,10.61
2022-12-22T03:38:25.303Z,10.49
2022-12-22T03:40:29.258Z,10.56
2022-12-22T03:41:29.242Z,10.57
2022-12-22T03:43:33.186Z,10.61
2022-12-22T03:44:33.165Z,10.57
2022-12-22T03:46:37.178Z,10.59
2022-12-22T03:47:37.089Z,10.54
2022-12-22T03:49:41.029Z,10.61
2022-12-22T03:50:41.025Z,10.63
2022-12-22T03:52:44.967Z,10.69
2022-12-22T03:53:44.939Z,10.64
2022-12-22T03:55:37.825Z,10.57
2022-12-22T03:56:37.805Z,10.56
2022-12-22T03:58:41.744Z,10.63
2022-12-22T03:59:41.724Z,10.63
2022-12-22T04:01:45.830Z,10.68
2022-12-22T04:02:45.769Z,10.76
2022-12-22T04:04:49.590Z,10.71
2022-12-22T04:05:49.576Z,10.57
2022-12-22T04:07:53.524Z,10.67
2022-12-22T04:08:53.510Z,10.64
2022-12-22T04:10:57.442Z,10.72
2022-12-22T04:11:57.431Z,10.72
2022-12-22T04:14:01.380Z,10.72
2022-12-22T04:15:01.353Z,10.61
2022-12-22T04:17:05.296Z,10.63
2022-12-22T04:18:05.277Z,10.67
2022-12-22T04:20:09.223Z,10.69
2022-12-22T04:21:09.208Z,10.67
2022-12-22T04:23:13.162Z,10.76
2022-12-22T04:24:13.143Z,10.71
2022-12-22T04:26:06.004Z,10.79
2022-12-22T04:27:05.990Z,10.71
2022-12-22T04:29:09.938Z,10.72
2022-12-22T04:30:09.912Z,10.72
2022-12-22T04:32:14.002Z,10.69
2022-12-22T04:33:13.901Z,10.82
2022-12-22T04:35:17.793Z,10.75
2022-12-22T04:36:17.780Z,10.74
2022-12-22T04:38:21.716Z,10.68
2022-12-22T04:39:21.727Z,10.68
2022-12-22T04:41:25.638Z,10.72
2022-12-22T04:42:25.629Z,10.74
2022-12-22T04:44:29.568Z,10.67
2022-12-22T04:45:29.627Z,10.68
2022-12-22T04:47:33.498Z,10.69
2022-12-22T04:48:33.477Z,10.72
2022-12-22T04:50:37.500Z,10.75
2022-12-22T04:51:37.490Z,10.76
2022-12-22T04:53:41.433Z,10.71
2022-12-22T04:54:41.412Z,10.69
2022-12-22T04:56:45.376Z,10.71
2022-12-22T04:57:45.339Z,10.64
2022-12-22T04:59:49.283Z,10.68
2022-12-22T05:00:49.337Z,10.56
2022-12-22T05:02:53.417Z,10.61
2022-12-22T05:03:53.203Z,10.63
2022-12-22T05:05:46.075Z,10.72
2022-12-22T05:06:46.054Z,10.67
2022-12-22T05:08:49.998Z,10.68
2022-12-22T05:09:49.983Z,10.68
2022-12-22T05:11:53.924Z,10.61
2022-12-22T05:12:53.909Z,10.61
2022-12-22T05:14:57.861Z,10.60
2022-12-22T05:15:57.848Z,10.59
2022-12-22T05:18:01.790Z,10.61
2022-12-22T05:19:01.797Z,10.68
2022-12-22T05:21:05.718Z,10.59
2022-12-22T05:22:05.690Z,10.67
2022-12-22T05:24:09.640Z,10.68
2022-12-22T05:25:09.613Z,10.69
2022-12-22T05:27:13.566Z,10.74
2022-12-22T05:28:13.551Z,10.72
2022-12-22T05:30:17.507Z,10.69
2022-12-22T05:31:17.528Z,10.72
2022-12-22T05:33:21.428Z,10.75
2022-12-22T05:34:21.403Z,10.71
2022-12-22T05:36:25.350Z,10.76
2022-12-22T05:37:25.348Z,10.82
2022-12-22T05:39:29.281Z,10.94
2022-12-22T05:40:29.261Z,10.86
2022-12-22T05:42:33.206Z,10.90
2022-12-22T05:43:33.189Z,10.96
2022-12-22T05:45:26.058Z,11.02
2022-12-22T05:46:26.097Z,10.92
2022-12-22T05:48:36.987Z,10.93
2022-12-22T05:49:29.968Z,10.96
2022-12-22T05:51:33.909Z,10.93
2022-12-22T05:52:33.895Z,10.93
2022-12-22T05:54:37.837Z,10.96
2022-12-22T05:55:37.826Z,10.94
2022-12-22T05:57:41.767Z,10.93
2022-12-22T05:58:41.745Z,10.99
2022-12-22T06:00:45.682Z,11.08
2022-12-22T06:01:45.684Z,11.10
2022-12-22T06:03:53.249Z,11.10
2022-12-22T06:04:49.597Z,11.12
2022-12-22T06:06:53.549Z,11.04
2022-12-22T06:07:53.527Z,11.10
2022-12-22T06:09:57.499Z,11.08
2022-12-22T06:10:57.474Z,11.11
2022-12-22T06:13:01.445Z,11.15
2022-12-22T06:14:01.414Z,11.14
2022-12-22T06:15:54.333Z,11.15
2022-12-22T06:16:54.242Z,11.10
2022-12-22T06:18:58.193Z,11.10
2022-12-22T06:19:58.166Z,11.15
2022-12-22T06:22:02.111Z,11.22
2022-12-22T06:23:02.098Z,11.19
2022-12-22T06:25:06.039Z,11.32
2022-12-22T06:26:06.028Z,11.37
2022-12-22T06:28:09.982Z,11.35
2022-12-22T06:29:09.951Z,11.37
2022-12-22T06:31:13.945Z,11.41
2022-12-22T06:32:13.881Z,11.36
2022-12-22T06:34:17.848Z,11.33
2022-12-22T06:35:17.813Z,11.30
2022-12-22T06:37:21.762Z,11.30
2022-12-22T06:38:21.734Z,11.26
2022-12-22T06:40:25.687Z,11.32
2022-12-22T06:41:25.678Z,11.32
2022-12-22T06:43:29.613Z,11.33
2022-12-22T06:44:29.598Z,11.40
2022-12-22T06:46:33.555Z,11.41
2022-12-22T06:47:33.521Z,11.44
2022-12-22T06:49:37.463Z,11.52
2022-12-22T06:50:37.447Z,11.68
2022-12-22T06:52:41.570Z,11.73
2022-12-22T06:53:41.556Z,11.86
2022-12-22T06:55:34.438Z,12.04
2022-12-22T06:56:34.443Z,12.06
2022-12-22T06:58:38.359Z,12.12
2022-12-22T06:59:38.335Z,12.09
2022-12-22T07:01:42.381Z,12.17
2022-12-22T07:02:42.464Z,12.17
2022-12-22T07:04:46.213Z,12.09
2022-12-22T07:05:46.191Z,12.15
2022-12-22T07:07:50.135Z,12.07
2022-12-22T07:08:50.129Z,12.09
2022-12-22T07:10:54.077Z,12.10
2022-12-22T07:11:54.052Z,12.09
2022-12-22T07:13:58.000Z,12.17
2022-12-22T07:14:57.983Z,12.22
2022-12-22T07:17:01.916Z,12.21
2022-12-22T07:18:01.899Z,12.17
2022-12-22T07:20:05.857Z,12.13
2022-12-22T07:21:05.846Z,12.18
2022-12-22T07:23:09.775Z,12.15
2022-12-22T07:24:09.764Z,12.09
2022-12-22T07:26:02.655Z,12.18
2022-12-22T07:27:02.640Z,12.18
2022-12-22T07:29:06.560Z,12.06
2022-12-22T07:30:06.544Z,12.04
2022-12-22T07:32:10.496Z,12.07
2022-12-22T07:33:10.468Z,12.03
2022-12-22T07:35:14.424Z,11.90
2022-12-22T07:36:14.403Z,11.88
2022-12-22T07:38:18.340Z,11.94
2022-12-22T07:39:18.325Z,11.88
2022-12-22T07:41:22.277Z,11.91
2022-12-22T07:42:22.254Z,11.90
2022-12-22T07:44:26.204Z,11.84
2022-12-22T07:45:26.179Z,11.78
2022-12-22T07:47:35.287Z,11.80
2022-12-22T07:48:30.119Z,11.80
2022-12-22T07:50:34.074Z,11.90
2022-12-22T07:51:34.053Z,11.94
2022-12-22T07:53:37.996Z,11.90
2022-12-22T07:54:41.787Z,11.91
2022-12-22T07:56:31.058Z,11.97
2022-12-22T07:57:31.031Z,11.94
2022-12-22T07:59:34.983Z,11.94
2022-12-22T08:00:34.957Z,11.88
2022-12-22T08:02:39.585Z,11.88
2022-12-22T08:03:38.900Z,11.91
2022-12-22T08:05:31.762Z,12.06
2022-12-22T08:06:31.748Z,12.00
2022-12-22T08:08:35.688Z,12.02
2022-12-22T08:09:35.670Z,12.02
2022-12-22T08:11:39.620Z,12.10
2022-12-22T08:12:39.646Z,12.12
2022-12-22T08:14:43.549Z,12.06
2022-12-22T08:15:43.529Z,12.09
2022-12-22T08:17:47.468Z,12.06
2022-12-22T08:18:47.456Z,12.10
2022-12-22T08:20:51.422Z,12.10
2022-12-22T08:21:53.203Z,12.15
2022-12-22T08:23:55.336Z,12.18
2022-12-22T08:24:55.322Z,12.21
2022-12-22T08:26:59.273Z,12.27
2022-12-22T08:27:59.342Z,12.29
2022-12-22T08:30:03.199Z,12.25
2022-12-22T08:31:03.183Z,12.29
2022-12-22T08:33:07.123Z,12.27
2022-12-22T08:34:07.108Z,12.36
2022-12-22T08:36:07.572Z,12.40
2022-12-22T08:36:59.967Z,12.42
2022-12-22T08:39:03.910Z,12.43
2022-12-22T08:40:03.894Z,12.35
2022-12-22T08:42:07.844Z,12.36
2022-12-22T08:43:07.827Z,12.35
2022-12-22T08:45:11.778Z,12.31
2022-12-22T08:46:11.749Z,12.36
2022-12-22T08:48:15.696Z,12.36
2022-12-22T08:49:15.680Z,12.39
2022-12-22T08:51:19.628Z,12.37
2022-12-22T08:52:19.751Z,12.32
2022-12-22T08:54:23.552Z,12.37
2022-12-22T08:55:23.546Z,12.43
2022-12-22T08:57:27.522Z,12.43
2022-12-22T08:58:27.466Z,12.53
2022-12-22T09:00:31.441Z,12.54
2022-12-22T09:01:31.479Z,12.50
2022-12-22T09:03:24.553Z,12.53
2022-12-22T09:04:24.468Z,12.64
2022-12-22T09:06:17.526Z,12.73
2022-12-22T09:07:17.517Z,12.68
2022-12-22T09:09:21.460Z,12.61
2022-12-22T09:10:21.439Z,12.68
2022-12-22T09:12:25.412Z,12.76
2022-12-22T09:13:25.381Z,12.76
2022-12-22T09:15:20.082Z,12.76
2022-12-22T09:16:20.172Z,12.73
2022-12-22T09:17:20.071Z,12.61
2022-12-22T09:18:20.053Z,12.68
2022-12-22T09:19:20.044Z,12.68
2022-12-22T09:20:20.032Z,12.65
2022-12-22T09:21:20.028Z,12.54
2022-12-22T09:22:26.758Z,12.62
2022-12-22T09:23:20.004Z,12.67
2022-12-22T09:24:20.000Z,12.62
2022-12-22T09:25:19.982Z,12.62
2022-12-22T09:26:19.978Z,12.53
2022-12-22T09:27:19.966Z,12.61
2022-12-22T09:28:19.964Z,12.57
2022-12-22T09:29:27.098Z,12.57
2022-12-22T09:31:23.967Z,12.53
2022-12-22T09:32:23.865Z,12.53
2022-12-22T09:34:27.815Z,12.50
2022-12-22T09:35:27.788Z,12.49
2022-12-22T09:37:31.739Z,12.42
2022-12-22T09:38:31.716Z,12.40
2022-12-22T09:40:35.658Z,12.37
2022-12-22T09:41:35.645Z,12.37
2022-12-22T09:43:39.592Z,12.40
2022-12-22T09:44:39.575Z,12.40
2022-12-22T09:46:43.520Z,12.47
2022-12-22T09:47:43.496Z,12.55
2022-12-22T09:49:47.456Z,12.46
2022-12-22T09:50:47.436Z,12.45
2022-12-22T09:52:51.378Z,12.50
2022-12-22T09:53:51.357Z,12.55
2022-12-22T09:55:44.224Z,12.57
2022-12-22T09:56:44.228Z,12.50
2022-12-22T09:58:48.167Z,12.57
2022-12-22T09:59:48.140Z,12.57
2022-12-22T10:01:52.186Z,12.57
2022-12-22T10:02:52.116Z,12.62
2022-12-22T10:04:56.035Z,12.79
2022-12-22T10:05:56.019Z,12.67
2022-12-22T10:07:59.963Z,12.76
2022-12-22T10:08:59.937Z,12.80
2022-12-22T10:11:03.875Z,12.78
2022-12-22T10:12:03.862Z,12.83
2022-12-22T10:14:07.810Z,12.97
2022-12-22T10:15:07.782Z,12.97
2022-12-22T10:17:11.785Z,13.03
2022-12-22T10:18:11.717Z,13.03
2022-12-22T10:20:15.650Z,13.08
2022-12-22T10:21:15.642Z,13.05
2022-12-22T10:23:19.591Z,12.97
2022-12-22T10:24:19.567Z,12.94
2022-12-22T10:26:29.715Z,12.93
2022-12-22T10:27:12.425Z,12.91
2022-12-22T10:29:16.408Z,12.72
2022-12-22T10:30:16.389Z,12.76
2022-12-22T10:32:20.417Z,12.58
2022-12-22T10:33:20.312Z,12.55
2022-12-22T10:35:24.257Z,12.46
2022-12-22T10:36:24.249Z,12.45
2022-12-22T10:38:28.205Z,12.40
2022-12-22T10:39:28.177Z,12.35
2022-12-22T10:41:32.139Z,12.40
2022-12-22T10:42:32.110Z,12.40
2022-12-22T10:44:36.048Z,12.32
2022-12-22T10:45:36.066Z,12.39
2022-12-22T10:47:39.984Z,12.37
2022-12-22T10:48:39.958Z,12.39
2022-12-22T10:50:43.907Z,12.49
2022-12-22T10:51:43.898Z,12.50
2022-12-22T10:53:47.839Z,12.53
2022-12-22T10:54:47.821Z,12.62
2022-12-22T10:56:51.789Z,12.72
2022-12-22T10:57:51.756Z,12.68
2022-12-22T10:58:51.756Z,12.67
2022-12-22T10:59:51.745Z,12.65
2022-12-22T11:00:51.736Z,12.62
2022-12-22T11:01:51.847Z,12.79
2022-12-22T11:02:51.851Z,12.76
2022-12-22T11:03:51.785Z,12.72
2022-12-22T11:04:51.705Z,12.79
2022-12-22T11:05:51.692Z,12.91
2022-12-22T11:06:51.676Z,12.82
2022-12-22T11:07:51.658Z,12.79
2022-12-22T11:08:52.150Z,12.82
2022-12-22T11:09:51.642Z,12.87
2022-12-22T11:10:51.637Z,12.85
2022-12-22T11:11:51.620Z,12.83
2022-12-22T11:12:51.621Z,12.82
2022-12-22T11:13:51.605Z,12.79
2022-12-22T11:14:51.597Z,12.82
2022-12-22T11:15:51.605Z,12.80
2022-12-22T11:16:51.613Z,12.80
2022-12-22T11:17:51.565Z,12.78
2022-12-22T11:18:51.562Z,12.90
2022-12-22T11:19:51.546Z,12.90
2022-12-22T11:20:51.539Z,12.83
2022-12-22T11:21:51.529Z,12.85
2022-12-22T11:22:51.519Z,12.90
2022-12-22T11:23:51.510Z,12.93
2022-12-22T11:24:51.500Z,12.87
2022-12-22T11:25:51.490Z,12.86
2022-12-22T11:26:51.488Z,12.86
2022-12-22T11:27:51.473Z,12.93
2022-12-22T11:28:51.465Z,12.93
2022-12-22T11:29:51.465Z,12.90
2022-12-22T11:30:51.482Z,12.79
2022-12-22T11:31:51.434Z,12.83
2022-12-22T11:32:51.426Z,12.90
2022-12-22T11:33:51.415Z,12.78
2022-12-22T11:34:51.429Z,12.83
2022-12-22T11:35:51.405Z,12.78
2022-12-22T11:36:51.389Z,12.83
2022-12-22T11:37:51.379Z,12.80
2022-12-22T11:38:51.369Z,12.68
2022-12-22T11:39:57.296Z,12.68
2022-12-22T11:40:51.350Z,12.70
2022-12-22T11:41:51.349Z,12.53
2022-12-22T11:42:51.331Z,12.58
2022-12-22T11:43:51.321Z,12.49
2022-12-22T11:44:51.320Z,12.47
2022-12-22T11:45:51.334Z,12.45
2022-12-22T11:46:51.344Z,12.32
2022-12-22T11:47:51.282Z,12.31
2022-12-22T11:48:51.273Z,12.25
2022-12-22T11:49:51.265Z,12.25
2022-12-22T11:51:01.978Z,12.29
2022-12-22T11:51:51.249Z,12.21
2022-12-22T11:52:51.232Z,12.06
2022-12-22T11:53:51.228Z,12.10
2022-12-22T11:54:51.211Z,12.07
2022-12-22T11:55:51.202Z,12.06
2022-12-22T11:56:51.191Z,12.06
2022-12-22T11:57:51.185Z,11.99
2022-12-22T11:58:51.239Z,12.02
2022-12-22T11:59:51.162Z,11.94
2022-12-22T12:01:20.400Z,12.00
2022-12-22T12:01:51.213Z,12.02
2022-12-22T12:02:51.202Z,12.03
2022-12-22T12:03:51.240Z,12.02
2022-12-22T12:04:51.116Z,12.02
2022-12-22T12:05:51.116Z,12.02
2022-12-22T12:06:51.100Z,12.03
2022-12-22T12:07:51.088Z,12.09
2022-12-22T12:08:51.073Z,12.02
2022-12-22T12:09:51.063Z,12.03
2022-12-22T12:10:51.055Z,12.10
2022-12-22T12:11:51.062Z,12.10
2022-12-22T12:12:51.039Z,12.06
2022-12-22T12:13:51.028Z,12.00
2022-12-22T12:14:51.015Z,12.10
2022-12-22T12:15:51.063Z,12.12
2022-12-22T12:16:50.994Z,12.03
2022-12-22T12:17:50.992Z,12.13
2022-12-22T12:18:50.982Z,12.17
2022-12-22T12:19:50.969Z,12.18
2022-12-22T12:20:50.970Z,12.20
2022-12-22T12:21:50.949Z,12.21
2022-12-22T12:22:50.945Z,12.22
2022-12-22T12:23:50.971Z,12.22
2022-12-22T12:24:50.921Z,12.29
2022-12-22T12:25:50.914Z,12.21
2022-12-22T12:26:50.905Z,12.28
2022-12-22T12:27:50.894Z,12.28
2022-12-22T12:28:50.887Z,12.29
2022-12-22T12:30:13.280Z,12.27
2022-12-22T12:30:50.914Z,12.29
2022-12-22T12:31:50.907Z,12.28
2022-12-22T12:32:50.841Z,12.25
2022-12-22T12:33:50.836Z,12.31
2022-12-22T12:34:50.821Z,12.36
2022-12-22T12:35:50.827Z,12.37
2022-12-22T12:36:50.802Z,12.36
2022-12-22T12:37:50.785Z,12.36
2022-12-22T12:39:08.498Z,12.35
2022-12-22T12:39:50.782Z,12.43
2022-12-22T12:40:50.761Z,12.39
2022-12-22T12:41:50.757Z,12.39
2022-12-22T12:42:50.747Z,12.32
2022-12-22T12:43:50.743Z,12.40
2022-12-22T12:44:50.725Z,12.43
2022-12-22T12:45:50.729Z,12.46
2022-12-22T12:46:50.760Z,12.53
2022-12-22T12:47:50.700Z,12.43
2022-12-22T12:48:50.688Z,12.40
2022-12-22T12:49:50.679Z,12.40
2022-12-22T12:50:50.675Z,12.53
2022-12-22T12:51:50.663Z,12.42
2022-12-22T12:52:50.650Z,12.39
2022-12-22T12:53:50.643Z,12.47
2022-12-22T12:54:50.650Z,12.47
2022-12-22T12:55:50.625Z,12.43
2022-12-22T12:56:50.615Z,12.39
2022-12-22T12:57:50.603Z,12.40
2022-12-22T12:58:50.655Z,12.40
2022-12-22T12:59:50.585Z,12.42
2022-12-22T13:00:56.964Z,12.37
2022-12-22T13:01:50.753Z,12.43
2022-12-22T13:02:50.706Z,12.39
2022-12-22T13:04:03.258Z,12.35
2022-12-22T13:04:50.535Z,12.39
2022-12-22T13:05:50.527Z,12.42
2022-12-22T13:06:51.547Z,12.43
2022-12-22T13:07:50.507Z,12.43
2022-12-22T13:08:50.501Z,12.40
2022-12-22T13:09:51.706Z,12.43
2022-12-22T13:10:50.484Z,12.40
2022-12-22T13:12:11.779Z,12.43
2022-12-22T13:12:50.458Z,12.46
2022-12-22T13:13:50.494Z,12.43
2022-12-22T13:14:50.443Z,12.46
2022-12-22T13:15:50.507Z,12.45
2022-12-22T13:16:50.494Z,12.39
2022-12-22T13:17:50.524Z,12.45
2022-12-22T13:18:52.310Z,12.45
2022-12-22T13:19:50.397Z,12.42
2022-12-22T13:20:50.384Z,12.39
2022-12-22T13:21:53.519Z,12.39
2022-12-22T13:22:50.364Z,12.37
2022-12-22T13:24:14.902Z,12.40
2022-12-22T13:24:50.343Z,12.37
2022-12-22T13:25:50.338Z,12.39
2022-12-22T13:26:50.324Z,12.40
2022-12-22T13:27:50.338Z,12.27
2022-12-22T13:28:50.307Z,12.25
2022-12-22T13:29:50.316Z,12.28
2022-12-22T13:30:50.294Z,12.18
2022-12-22T13:31:50.343Z,12.07
2022-12-22T13:32:50.281Z,12.04
2022-12-22T13:33:50.263Z,12.00
2022-12-22T13:35:30.457Z,11.87
2022-12-22T13:35:54.911Z,11.94
2022-12-22T13:36:50.232Z,11.78
2022-12-22T13:37:50.221Z,11.73
2022-12-22T13:38:50.210Z,11.72
2022-12-22T13:39:50.201Z,11.66
2022-12-22T13:40:50.194Z,11.69
2022-12-22T13:41:50.246Z,11.69
2022-12-22T13:42:50.224Z,11.68
2022-12-22T13:43:50.165Z,11.72
2022-12-22T13:44:50.153Z,11.81
2022-12-22T13:45:50.149Z,11.75
2022-12-22T13:46:50.205Z,11.69
2022-12-22T13:47:50.123Z,11.75
2022-12-22T13:48:50.120Z,11.68
2022-12-22T13:50:08.433Z,11.62
2022-12-22T13:50:50.095Z,11.65
2022-12-22T13:51:50.088Z,11.69
2022-12-22T13:52:50.072Z,11.69
2022-12-22T13:54:07.987Z,11.70
2022-12-22T13:54:50.069Z,11.72
2022-12-22T13:55:50.048Z,11.73
2022-12-22T13:56:50.037Z,11.72
2022-12-22T13:57:54.740Z,11.73
2022-12-22T13:58:50.023Z,11.70
2022-12-22T13:59:50.008Z,11.81
2022-12-22T14:00:50.030Z,11.69
2022-12-22T14:01:50.217Z,11.73
2022-12-22T14:02:50.104Z,11.72
2022-12-22T14:04:04.593Z,11.70
2022-12-22T14:04:52.567Z,11.73
2022-12-22T14:05:49.957Z,11.72
2022-12-22T14:06:49.947Z,11.66
2022-12-22T14:07:49.931Z,11.75
2022-12-22T14:08:49.927Z,11.78
2022-12-22T14:09:49.913Z,11.77
2022-12-22T14:10:49.906Z,11.77
2022-12-22T14:11:52.429Z,11.73
2022-12-22T14:12:49.882Z,11.78
2022-12-22T14:13:49.879Z,11.83
2022-12-22T14:14:49.863Z,11.83
2022-12-22T14:15:49.858Z,11.78
2022-12-22T14:16:49.964Z,11.90
2022-12-22T14:17:53.263Z,11.84
2022-12-22T14:18:49.828Z,11.84
2022-12-22T14:19:49.818Z,11.95
2022-12-22T14:20:49.813Z,11.88
2022-12-22T14:21:49.809Z,11.95
2022-12-22T14:22:49.798Z,11.84
2022-12-22T14:23:49.788Z,11.84
2022-12-22T14:24:49.767Z,11.97
2022-12-22T14:25:49.764Z,12.04
2022-12-22T14:26:49.752Z,12.00
2022-12-22T14:27:49.746Z,12.04
2022-12-22T14:28:49.731Z,12.10
2022-12-22T14:29:49.747Z,12.09
2022-12-22T14:30:49.722Z,12.03
2022-12-22T14:31:49.746Z,12.09
2022-12-22T14:32:54.699Z,12.07
2022-12-22T14:33:49.689Z,11.99
2022-12-22T14:34:49.676Z,12.03
2022-12-22T14:35:49.667Z,11.88
2022-12-22T14:36:53.977Z,11.87
2022-12-22T14:37:49.642Z,11.84
2022-12-22T14:38:49.645Z,11.83
2022-12-22T14:39:49.640Z,11.94
2022-12-22T14:40:54.578Z,11.88
2022-12-22T14:41:49.607Z,11.88
2022-12-22T14:42:49.597Z,11.86
2022-12-22T14:43:49.590Z,11.99
2022-12-22T14:44:49.582Z,11.90
2022-12-22T14:45:49.627Z,12.00
2022-12-22T14:46:49.563Z,11.86
2022-12-22T14:47:49.550Z,11.90
2022-12-22T14:48:49.542Z,11.87
2022-12-22T14:49:49.531Z,11.87
2022-12-22T14:50:49.529Z,11.81
2022-12-22T14:51:49.512Z,11.80
2022-12-22T14:52:49.525Z,11.80
2022-12-22T14:53:49.499Z,11.83
2022-12-22T14:54:49.482Z,11.78
2022-12-22T14:55:49.485Z,11.80
2022-12-22T14:56:49.467Z,11.84
2022-12-22T14:57:49.454Z,11.77
2022-12-22T14:58:49.461Z,11.80
2022-12-22T14:59:49.432Z,11.75
2022-12-22T15:00:49.470Z,11.72
2022-12-22T15:01:49.518Z,11.80
2022-12-22T15:02:49.548Z,11.78
2022-12-22T15:03:49.426Z,11.77
2022-12-22T15:04:49.390Z,11.77
2022-12-22T15:05:49.379Z,11.73
2022-12-22T15:06:49.370Z,11.73
2022-12-22T15:08:07.336Z,11.68
2022-12-22T15:08:49.348Z,11.68
2022-12-22T15:10:14.613Z,11.65
2022-12-22T15:10:49.334Z,11.65
2022-12-22T15:11:49.321Z,11.69
2022-12-22T15:12:49.395Z,11.54
2022-12-22T15:13:49.306Z,11.52
2022-12-22T15:14:49.436Z,11.51
2022-12-22T15:15:49.281Z,11.54
2022-12-22T15:16:49.366Z,11.51
2022-12-22T15:17:49.264Z,11.55
2022-12-22T15:18:49.255Z,11.55
2022-12-22T15:19:49.245Z,11.55
2022-12-22T15:20:49.234Z,11.52
2022-12-22T15:21:49.221Z,11.48
2022-12-22T15:22:49.214Z,11.51
2022-12-22T15:23:49.209Z,11.48
2022-12-22T15:24:49.191Z,11.40
2022-12-22T15:25:49.187Z,11.44
2022-12-22T15:26:49.174Z,11.45
2022-12-22T15:27:49.182Z,11.40